sensor_id;sensor_type;location;lat;lon;timestamp;P1;durP1;ratioP1;P2;durP2;ratioP2
5867;SDS011;2960;49.142;7.768;2022-11-14T00:00:51;10.40;;;4.83;;
5867;SDS011;2960;49.142;7.768;2022-11-14T00:03:18;12.80;;;5.30;;
5867;SDS011;2960;49.142;7.768;2022-11-14T00:05:45;12.83;;;5.50;;
5867;SDS011;2960;49.142;7.768;2022-11-14T00:08:13;12.07;;;5.70;;
5867;SDS011;2960;49.142;7.768;2022-11-14T00:10:44;12.37;;;5.60;;
5867;SDS011;2960;49.142;7.768;2022-11-14T00:13:14;11.90;;;5.43;;
5867;SDS011;2960;49.142;7.768;2022-11-14T00:15:42;11.83;;;5.70;;
5867;SDS011;2960;49.142;7.768;2022-11-14T00:18:11;13.60;;;5.70;;
5867;SDS011;2960;49.142;7.768;2022-11-14T00:20:38;10.80;;;5.07;;
5867;SDS011;2960;49.142;7.768;2022-11-14T00:23:05;11.70;;;5.20;;
5867;SDS011;2960;49.142;7.768;2022-11-14T00:25:32;12.53;;;6.27;;
5867;SDS011;2960;49.142;7.768;2022-11-14T00:27:59;12.43;;;5.83;;
5867;SDS011;2960;49.142;7.768;2022-11-14T00:30:26;11.70;;;5.47;;
5867;SDS011;2960;49.142;7.768;2022-11-14T00:32:54;13.57;;;5.93;;
5867;SDS011;2960;49.142;7.768;2022-11-14T00:35:22;12.67;;;5.87;;
5867;SDS011;2960;49.142;7.768;2022-11-14T00:37:49;13.33;;;5.37;;
5867;SDS011;2960;49.142;7.768;2022-11-14T00:40:16;11.20;;;5.03;;
5867;SDS011;2960;49.142;7.768;2022-11-14T00:42:43;11.73;;;5.10;;
5867;SDS011;2960;49.142;7.768;2022-11-14T00:45:10;12.40;;;5.77;;
5867;SDS011;2960;49.142;7.768;2022-11-14T00:47:37;12.10;;;5.50;;
5867;SDS011;2960;49.142;7.768;2022-11-14T00:50:05;13.30;;;5.80;;
5867;SDS011;2960;49.142;7.768;2022-11-14T00:52:34;11.10;;;5.20;;
5867;SDS011;2960;49.142;7.768;2022-11-14T00:55:01;12.07;;;5.60;;
5867;SDS011;2960;49.142;7.768;2022-11-14T00:57:29;12.13;;;5.60;;
5867;SDS011;2960;49.142;7.768;2022-11-14T00:59:57;12.50;;;5.67;;
5867;SDS011;2960;49.142;7.768;2022-11-14T01:02:24;12.77;;;5.70;;
5867;SDS011;2960;49.142;7.768;2022-11-14T01:04:51;12.90;;;5.90;;
5867;SDS011;2960;49.142;7.768;2022-11-14T01:07:18;12.60;;;5.83;;
5867;SDS011;2960;49.142;7.768;2022-11-14T01:09:46;13.00;;;5.60;;
5867;SDS011;2960;49.142;7.768;2022-11-14T01:12:13;11.50;;;5.50;;
5867;SDS011;2960;49.142;7.768;2022-11-14T01:14:41;12.10;;;5.50;;
5867;SDS011;2960;49.142;7.768;2022-11-14T01:17:08;13.13;;;5.70;;
5867;SDS011;2960;49.142;7.768;2022-11-14T01:19:35;11.90;;;5.57;;
5867;SDS011;2960;49.142;7.768;2022-11-14T01:22:02;13.03;;;5.43;;
5867;SDS011;2960;49.142;7.768;2022-11-14T01:24:30;13.57;;;5.10;;
5867;SDS011;2960;49.142;7.768;2022-11-14T01:26:59;13.27;;;5.60;;
5867;SDS011;2960;49.142;7.768;2022-11-14T01:29:27;12.17;;;5.87;;
5867;SDS011;2960;49.142;7.768;2022-11-14T01:31:54;12.83;;;5.43;;
5867;SDS011;2960;49.142;7.768;2022-11-14T01:34:22;12.23;;;5.53;;
5867;SDS011;2960;49.142;7.768;2022-11-14T01:36:49;12.07;;;5.43;;
5867;SDS011;2960;49.142;7.768;2022-11-14T01:39:16;11.80;;;5.50;;
5867;SDS011;2960;49.142;7.768;2022-11-14T01:41:43;13.20;;;5.93;;
5867;SDS011;2960;49.142;7.768;2022-11-14T01:44:12;13.50;;;5.80;;
5867;SDS011;2960;49.142;7.768;2022-11-14T01:46:41;13.83;;;6.17;;
5867;SDS011;2960;49.142;7.768;2022-11-14T01:49:14;12.30;;;5.53;;
5867;SDS011;2960;49.142;7.768;2022-11-14T01:51:46;13.00;;;5.83;;
5867;SDS011;2960;49.142;7.768;2022-11-14T01:54:19;13.40;;;5.97;;
5867;SDS011;2960;49.142;7.768;2022-11-14T01:56:53;13.33;;;6.37;;
5867;SDS011;2960;49.142;7.768;2022-11-14T01:59:26;13.70;;;6.00;;
5867;SDS011;2960;49.142;7.768;2022-11-14T02:01:57;12.70;;;6.00;;
5867;SDS011;2960;49.142;7.768;2022-11-14T02:04:32;12.30;;;5.60;;
5867;SDS011;2960;49.142;7.768;2022-11-14T02:07:03;13.80;;;5.90;;
5867;SDS011;2960;49.142;7.768;2022-11-14T02:09:33;11.30;;;5.30;;
5867;SDS011;2960;49.142;7.768;2022-11-14T02:12:02;11.90;;;5.60;;
5867;SDS011;2960;49.142;7.768;2022-11-14T02:14:34;13.33;;;5.80;;
5867;SDS011;2960;49.142;7.768;2022-11-14T02:17:03;13.13;;;5.20;;
5867;SDS011;2960;49.142;7.768;2022-11-14T02:19:39;12.00;;;5.70;;
5867;SDS011;2960;49.142;7.768;2022-11-14T02:22:09;13.90;;;6.13;;
5867;SDS011;2960;49.142;7.768;2022-11-14T02:24:36;11.83;;;5.20;;
5867;SDS011;2960;49.142;7.768;2022-11-14T02:27:04;11.60;;;5.07;;
5867;SDS011;2960;49.142;7.768;2022-11-14T02:29:32;11.93;;;5.70;;
5867;SDS011;2960;49.142;7.768;2022-11-14T02:32:00;12.50;;;5.70;;
5867;SDS011;2960;49.142;7.768;2022-11-14T02:34:28;12.43;;;6.10;;
5867;SDS011;2960;49.142;7.768;2022-11-14T02:36:55;13.43;;;5.63;;
5867;SDS011;2960;49.142;7.768;2022-11-14T02:39:24;12.97;;;6.00;;
5867;SDS011;2960;49.142;7.768;2022-11-14T02:41:52;13.30;;;6.10;;
5867;SDS011;2960;49.142;7.768;2022-11-14T02:44:19;13.47;;;6.10;;
5867;SDS011;2960;49.142;7.768;2022-11-14T02:46:46;12.23;;;5.70;;
5867;SDS011;2960;49.142;7.768;2022-11-14T02:49:13;12.70;;;5.37;;
5867;SDS011;2960;49.142;7.768;2022-11-14T02:51:40;13.17;;;5.67;;
5867;SDS011;2960;49.142;7.768;2022-11-14T02:54:09;12.50;;;5.50;;
5867;SDS011;2960;49.142;7.768;2022-11-14T02:56:37;12.23;;;5.83;;
5867;SDS011;2960;49.142;7.768;2022-11-14T02:59:04;12.83;;;5.60;;
5867;SDS011;2960;49.142;7.768;2022-11-14T03:01:31;11.47;;;4.93;;
5867;SDS011;2960;49.142;7.768;2022-11-14T03:03:58;12.20;;;5.30;;
5867;SDS011;2960;49.142;7.768;2022-11-14T03:06:25;13.47;;;5.27;;
5867;SDS011;2960;49.142;7.768;2022-11-14T03:08:53;12.30;;;5.10;;
5867;SDS011;2960;49.142;7.768;2022-11-14T03:11:20;11.80;;;5.00;;
5867;SDS011;2960;49.142;7.768;2022-11-14T03:13:48;13.50;;;5.23;;
5867;SDS011;2960;49.142;7.768;2022-11-14T03:16:15;12.30;;;5.50;;
5867;SDS011;2960;49.142;7.768;2022-11-14T03:18:42;12.77;;;5.07;;
5867;SDS011;2960;49.142;7.768;2022-11-14T03:21:10;11.33;;;5.27;;
5867;SDS011;2960;49.142;7.768;2022-11-14T03:23:39;12.10;;;5.37;;
5867;SDS011;2960;49.142;7.768;2022-11-14T03:26:07;12.63;;;5.70;;
5867;SDS011;2960;49.142;7.768;2022-11-14T03:28:37;14.17;;;5.90;;
5867;SDS011;2960;49.142;7.768;2022-11-14T03:31:07;12.53;;;5.80;;
5867;SDS011;2960;49.142;7.768;2022-11-14T03:33:36;12.10;;;5.50;;
5867;SDS011;2960;49.142;7.768;2022-11-14T03:36:04;12.60;;;5.43;;
5867;SDS011;2960;49.142;7.768;2022-11-14T03:38:32;12.20;;;5.43;;
5867;SDS011;2960;49.142;7.768;2022-11-14T03:41:00;12.97;;;5.90;;
5867;SDS011;2960;49.142;7.768;2022-11-14T03:43:29;13.13;;;5.90;;
5867;SDS011;2960;49.142;7.768;2022-11-14T03:45:57;12.20;;;5.70;;
5867;SDS011;2960;49.142;7.768;2022-11-14T03:48:26;14.20;;;5.97;;
5867;SDS011;2960;49.142;7.768;2022-11-14T03:50:54;13.33;;;6.20;;
5867;SDS011;2960;49.142;7.768;2022-11-14T03:53:21;14.67;;;5.97;;
5867;SDS011;2960;49.142;7.768;2022-11-14T03:55:49;14.13;;;6.40;;
5867;SDS011;2960;49.142;7.768;2022-11-14T03:58:16;14.27;;;6.40;;
5867;SDS011;2960;49.142;7.768;2022-11-14T04:00:43;13.70;;;6.10;;
5867;SDS011;2960;49.142;7.768;2022-11-14T04:03:10;12.37;;;5.80;;
5867;SDS011;2960;49.142;7.768;2022-11-14T04:05:39;13.30;;;5.83;;
5867;SDS011;2960;49.142;7.768;2022-11-14T04:08:09;13.47;;;5.60;;
5867;SDS011;2960;49.142;7.768;2022-11-14T04:10:39;15.97;;;6.57;;
5867;SDS011;2960;49.142;7.768;2022-11-14T04:13:06;12.67;;;5.73;;
5867;SDS011;2960;49.142;7.768;2022-11-14T04:15:34;12.93;;;5.67;;
5867;SDS011;2960;49.142;7.768;2022-11-14T04:18:01;14.63;;;6.00;;
5867;SDS011;2960;49.142;7.768;2022-11-14T04:20:28;14.03;;;6.20;;
5867;SDS011;2960;49.142;7.768;2022-11-14T04:22:56;11.60;;;5.10;;
5867;SDS011;2960;49.142;7.768;2022-11-14T04:25:23;13.83;;;5.70;;
5867;SDS011;2960;49.142;7.768;2022-11-14T04:27:50;12.40;;;5.80;;
5867;SDS011;2960;49.142;7.768;2022-11-14T04:30:17;11.17;;;4.77;;
5867;SDS011;2960;49.142;7.768;2022-11-14T04:32:45;14.27;;;5.60;;
5867;SDS011;2960;49.142;7.768;2022-11-14T04:35:13;13.23;;;5.70;;
5867;SDS011;2960;49.142;7.768;2022-11-14T04:37:40;13.50;;;5.80;;
5867;SDS011;2960;49.142;7.768;2022-11-14T04:40:09;14.60;;;5.77;;
5867;SDS011;2960;49.142;7.768;2022-11-14T04:42:37;12.77;;;5.37;;
5867;SDS011;2960;49.142;7.768;2022-11-14T04:45:04;12.33;;;5.33;;
5867;SDS011;2960;49.142;7.768;2022-11-14T04:47:35;13.40;;;5.33;;
5867;SDS011;2960;49.142;7.768;2022-11-14T04:50:03;12.43;;;5.10;;
5867;SDS011;2960;49.142;7.768;2022-11-14T04:52:31;14.60;;;5.80;;
5867;SDS011;2960;49.142;7.768;2022-11-14T04:54:58;11.80;;;5.33;;
5867;SDS011;2960;49.142;7.768;2022-11-14T04:57:27;12.00;;;5.13;;
5867;SDS011;2960;49.142;7.768;2022-11-14T04:59:54;11.70;;;5.00;;
5867;SDS011;2960;49.142;7.768;2022-11-14T05:02:21;12.60;;;5.20;;
5867;SDS011;2960;49.142;7.768;2022-11-14T05:04:48;14.00;;;5.60;;
5867;SDS011;2960;49.142;7.768;2022-11-14T05:07:15;12.70;;;5.00;;
5867;SDS011;2960;49.142;7.768;2022-11-14T05:09:42;14.90;;;4.87;;
5867;SDS011;2960;49.142;7.768;2022-11-14T05:12:09;13.10;;;4.83;;
5867;SDS011;2960;49.142;7.768;2022-11-14T05:14:37;15.50;;;5.13;;
5867;SDS011;2960;49.142;7.768;2022-11-14T05:17:04;12.77;;;5.10;;
5867;SDS011;2960;49.142;7.768;2022-11-14T05:19:31;12.40;;;5.20;;
5867;SDS011;2960;49.142;7.768;2022-11-14T05:21:58;11.50;;;4.57;;
5867;SDS011;2960;49.142;7.768;2022-11-14T05:24:25;13.70;;;5.07;;
5867;SDS011;2960;49.142;7.768;2022-11-14T05:26:52;13.30;;;5.60;;
5867;SDS011;2960;49.142;7.768;2022-11-14T05:29:19;13.17;;;5.33;;
5867;SDS011;2960;49.142;7.768;2022-11-14T05:31:48;13.50;;;5.13;;
5867;SDS011;2960;49.142;7.768;2022-11-14T05:34:15;13.63;;;5.10;;
5867;SDS011;2960;49.142;7.768;2022-11-14T05:36:42;13.17;;;5.13;;
5867;SDS011;2960;49.142;7.768;2022-11-14T05:39:09;11.10;;;4.70;;
5867;SDS011;2960;49.142;7.768;2022-11-14T05:41:36;11.10;;;4.20;;
5867;SDS011;2960;49.142;7.768;2022-11-14T05:44:03;12.03;;;4.80;;
5867;SDS011;2960;49.142;7.768;2022-11-14T05:46:30;12.50;;;5.30;;
5867;SDS011;2960;49.142;7.768;2022-11-14T05:48:59;13.40;;;5.97;;
5867;SDS011;2960;49.142;7.768;2022-11-14T05:51:26;13.17;;;4.70;;
5867;SDS011;2960;49.142;7.768;2022-11-14T05:53:53;12.27;;;4.80;;
5867;SDS011;2960;49.142;7.768;2022-11-14T05:56:20;11.20;;;4.73;;
5867;SDS011;2960;49.142;7.768;2022-11-14T05:58:47;12.90;;;5.43;;
5867;SDS011;2960;49.142;7.768;2022-11-14T06:01:15;11.70;;;4.73;;
5867;SDS011;2960;49.142;7.768;2022-11-14T06:03:47;12.20;;;4.80;;
5867;SDS011;2960;49.142;7.768;2022-11-14T06:06:16;11.60;;;4.90;;
5867;SDS011;2960;49.142;7.768;2022-11-14T06:08:45;13.87;;;5.27;;
5867;SDS011;2960;49.142;7.768;2022-11-14T06:11:14;14.00;;;5.70;;
5867;SDS011;2960;49.142;7.768;2022-11-14T06:13:43;14.07;;;5.70;;
5867;SDS011;2960;49.142;7.768;2022-11-14T06:16:11;14.20;;;6.13;;
5867;SDS011;2960;49.142;7.768;2022-11-14T06:18:39;12.80;;;5.43;;
5867;SDS011;2960;49.142;7.768;2022-11-14T06:21:09;14.00;;;5.23;;
5867;SDS011;2960;49.142;7.768;2022-11-14T06:23:41;14.20;;;5.40;;
5867;SDS011;2960;49.142;7.768;2022-11-14T06:26:12;12.40;;;4.73;;
5867;SDS011;2960;49.142;7.768;2022-11-14T06:28:46;11.83;;;4.80;;
5867;SDS011;2960;49.142;7.768;2022-11-14T06:31:13;14.60;;;5.07;;
5867;SDS011;2960;49.142;7.768;2022-11-14T06:33:40;12.30;;;4.73;;
5867;SDS011;2960;49.142;7.768;2022-11-14T06:36:08;12.13;;;4.40;;
5867;SDS011;2960;49.142;7.768;2022-11-14T06:38:36;11.40;;;4.47;;
5867;SDS011;2960;49.142;7.768;2022-11-14T06:41:07;13.27;;;4.43;;
5867;SDS011;2960;49.142;7.768;2022-11-14T06:43:37;13.77;;;5.10;;
5867;SDS011;2960;49.142;7.768;2022-11-14T06:46:05;11.93;;;4.40;;
5867;SDS011;2960;49.142;7.768;2022-11-14T06:48:34;11.50;;;4.70;;
5867;SDS011;2960;49.142;7.768;2022-11-14T06:51:02;11.00;;;4.50;;
5867;SDS011;2960;49.142;7.768;2022-11-14T06:53:33;11.87;;;4.30;;
5867;SDS011;2960;49.142;7.768;2022-11-14T06:56:02;12.57;;;4.70;;
5867;SDS011;2960;49.142;7.768;2022-11-14T06:58:33;11.03;;;4.67;;
5867;SDS011;2960;49.142;7.768;2022-11-14T07:01:04;14.37;;;5.03;;
5867;SDS011;2960;49.142;7.768;2022-11-14T07:03:32;11.30;;;4.20;;
5867;SDS011;2960;49.142;7.768;2022-11-14T07:06:00;12.50;;;4.93;;
5867;SDS011;2960;49.142;7.768;2022-11-14T07:08:27;11.83;;;5.00;;
5867;SDS011;2960;49.142;7.768;2022-11-14T07:10:59;11.70;;;4.80;;
5867;SDS011;2960;49.142;7.768;2022-11-14T07:13:27;12.30;;;5.17;;
5867;SDS011;2960;49.142;7.768;2022-11-14T07:15:56;11.90;;;5.10;;
5867;SDS011;2960;49.142;7.768;2022-11-14T07:18:23;11.67;;;4.43;;
5867;SDS011;2960;49.142;7.768;2022-11-14T07:20:57;14.13;;;5.83;;
5867;SDS011;2960;49.142;7.768;2022-11-14T07:23:29;12.03;;;4.70;;
5867;SDS011;2960;49.142;7.768;2022-11-14T07:25:59;12.13;;;5.07;;
5867;SDS011;2960;49.142;7.768;2022-11-14T07:28:28;11.10;;;4.60;;
5867;SDS011;2960;49.142;7.768;2022-11-14T07:30:57;11.03;;;4.60;;
5867;SDS011;2960;49.142;7.768;2022-11-14T07:33:24;12.30;;;5.00;;
5867;SDS011;2960;49.142;7.768;2022-11-14T07:35:51;12.87;;;5.60;;
5867;SDS011;2960;49.142;7.768;2022-11-14T07:38:18;12.70;;;5.13;;
5867;SDS011;2960;49.142;7.768;2022-11-14T07:40:51;11.97;;;4.77;;
5867;SDS011;2960;49.142;7.768;2022-11-14T07:43:19;11.80;;;5.30;;
5867;SDS011;2960;49.142;7.768;2022-11-14T07:45:46;14.10;;;5.20;;
5867;SDS011;2960;49.142;7.768;2022-11-14T07:48:15;11.50;;;4.53;;
5867;SDS011;2960;49.142;7.768;2022-11-14T07:50:42;16.60;;;5.20;;
5867;SDS011;2960;49.142;7.768;2022-11-14T07:53:11;11.07;;;4.90;;
5867;SDS011;2960;49.142;7.768;2022-11-14T07:55:39;14.00;;;5.20;;
5867;SDS011;2960;49.142;7.768;2022-11-14T07:58:09;12.70;;;5.20;;
5867;SDS011;2960;49.142;7.768;2022-11-14T08:00:37;12.03;;;4.50;;
5867;SDS011;2960;49.142;7.768;2022-11-14T08:03:05;12.43;;;5.03;;
5867;SDS011;2960;49.142;7.768;2022-11-14T08:05:34;11.50;;;4.53;;
5867;SDS011;2960;49.142;7.768;2022-11-14T08:08:01;12.80;;;4.93;;
5867;SDS011;2960;49.142;7.768;2022-11-14T08:10:28;11.77;;;5.13;;
5867;SDS011;2960;49.142;7.768;2022-11-14T08:12:56;11.47;;;4.67;;
5867;SDS011;2960;49.142;7.768;2022-11-14T08:15:26;13.33;;;5.33;;
5867;SDS011;2960;49.142;7.768;2022-11-14T08:17:56;14.27;;;5.30;;
5867;SDS011;2960;49.142;7.768;2022-11-14T08:20:23;11.97;;;5.00;;
5867;SDS011;2960;49.142;7.768;2022-11-14T08:22:52;13.10;;;5.70;;
5867;SDS011;2960;49.142;7.768;2022-11-14T08:25:19;12.33;;;4.90;;
5867;SDS011;2960;49.142;7.768;2022-11-14T08:27:46;12.83;;;5.60;;
5867;SDS011;2960;49.142;7.768;2022-11-14T08:30:14;12.17;;;4.83;;
5867;SDS011;2960;49.142;7.768;2022-11-14T08:32:41;11.10;;;4.50;;
5867;SDS011;2960;49.142;7.768;2022-11-14T08:35:09;10.10;;;4.30;;
5867;SDS011;2960;49.142;7.768;2022-11-14T08:37:36;12.00;;;4.77;;
5867;SDS011;2960;49.142;7.768;2022-11-14T08:40:04;12.50;;;4.83;;
5867;SDS011;2960;49.142;7.768;2022-11-14T08:42:32;10.23;;;4.20;;
5867;SDS011;2960;49.142;7.768;2022-11-14T08:44:59;12.27;;;4.07;;
5867;SDS011;2960;49.142;7.768;2022-11-14T08:47:26;11.43;;;4.87;;
5867;SDS011;2960;49.142;7.768;2022-11-14T08:49:53;11.10;;;4.47;;
5867;SDS011;2960;49.142;7.768;2022-11-14T08:52:20;10.87;;;4.40;;
5867;SDS011;2960;49.142;7.768;2022-11-14T08:54:48;11.67;;;4.70;;
5867;SDS011;2960;49.142;7.768;2022-11-14T08:57:17;10.60;;;3.90;;
5867;SDS011;2960;49.142;7.768;2022-11-14T08:59:44;12.13;;;4.50;;
5867;SDS011;2960;49.142;7.768;2022-11-14T09:02:11;11.67;;;4.50;;
5867;SDS011;2960;49.142;7.768;2022-11-14T09:04:39;11.50;;;4.73;;
5867;SDS011;2960;49.142;7.768;2022-11-14T09:07:06;12.67;;;4.77;;
5867;SDS011;2960;49.142;7.768;2022-11-14T09:09:33;11.40;;;4.40;;
5867;SDS011;2960;49.142;7.768;2022-11-14T09:12:00;11.10;;;4.03;;
5867;SDS011;2960;49.142;7.768;2022-11-14T09:14:29;10.80;;;4.30;;
5867;SDS011;2960;49.142;7.768;2022-11-14T09:16:56;10.33;;;3.90;;
5867;SDS011;2960;49.142;7.768;2022-11-14T09:19:23;11.10;;;4.30;;
5867;SDS011;2960;49.142;7.768;2022-11-14T09:21:50;12.60;;;5.00;;
5867;SDS011;2960;49.142;7.768;2022-11-14T09:24:20;11.20;;;4.70;;
5867;SDS011;2960;49.142;7.768;2022-11-14T09:26:47;10.80;;;4.53;;
5867;SDS011;2960;49.142;7.768;2022-11-14T09:29:16;12.80;;;4.83;;
5867;SDS011;2960;49.142;7.768;2022-11-14T09:31:45;10.43;;;4.47;;
5867;SDS011;2960;49.142;7.768;2022-11-14T09:34:12;11.17;;;4.53;;
5867;SDS011;2960;49.142;7.768;2022-11-14T09:36:39;10.83;;;4.33;;
5867;SDS011;2960;49.142;7.768;2022-11-14T09:39:06;11.80;;;4.67;;
5867;SDS011;2960;49.142;7.768;2022-11-14T09:41:37;10.90;;;4.13;;
5867;SDS011;2960;49.142;7.768;2022-11-14T09:44:23;13.77;;;4.80;;
5867;SDS011;2960;49.142;7.768;2022-11-14T09:47:21;10.97;;;4.73;;
5867;SDS011;2960;49.142;7.768;2022-11-14T09:49:53;11.40;;;4.53;;
5867;SDS011;2960;49.142;7.768;2022-11-14T09:52:27;11.80;;;4.97;;
5867;SDS011;2960;49.142;7.768;2022-11-14T09:55:02;12.60;;;4.83;;
5867;SDS011;2960;49.142;7.768;2022-11-14T09:57:37;13.97;;;5.63;;
5867;SDS011;2960;49.142;7.768;2022-11-14T10:00:11;13.20;;;5.80;;
5867;SDS011;2960;49.142;7.768;2022-11-14T10:02:43;11.90;;;5.30;;
5867;SDS011;2960;49.142;7.768;2022-11-14T10:05:44;13.03;;;5.10;;
5867;SDS011;2960;49.142;7.768;2022-11-14T10:11:19;12.37;;;5.33;;
5867;SDS011;2960;49.142;7.768;2022-11-14T10:13:59;12.00;;;5.30;;
5867;SDS011;2960;49.142;7.768;2022-11-14T10:17:04;13.20;;;5.10;;
5867;SDS011;2960;49.142;7.768;2022-11-14T10:19:45;12.60;;;5.07;;
5867;SDS011;2960;49.142;7.768;2022-11-14T10:22:22;13.87;;;5.07;;
5867;SDS011;2960;49.142;7.768;2022-11-14T10:25:12;11.67;;;4.70;;
5867;SDS011;2960;49.142;7.768;2022-11-14T10:27:51;11.77;;;5.20;;
5867;SDS011;2960;49.142;7.768;2022-11-14T10:30:31;13.37;;;5.60;;
5867;SDS011;2960;49.142;7.768;2022-11-14T10:33:10;12.37;;;5.10;;
5867;SDS011;2960;49.142;7.768;2022-11-14T10:35:52;12.20;;;5.33;;
5867;SDS011;2960;49.142;7.768;2022-11-14T10:38:25;13.50;;;5.37;;
5867;SDS011;2960;49.142;7.768;2022-11-14T10:40:59;12.10;;;5.00;;
5867;SDS011;2960;49.142;7.768;2022-11-14T10:43:31;11.70;;;5.30;;
5867;SDS011;2960;49.142;7.768;2022-11-14T10:46:04;11.00;;;4.60;;
5867;SDS011;2960;49.142;7.768;2022-11-14T10:48:37;13.80;;;5.37;;
5867;SDS011;2960;49.142;7.768;2022-11-14T10:51:11;12.07;;;5.20;;
5867;SDS011;2960;49.142;7.768;2022-11-14T10:53:49;12.10;;;5.37;;
5867;SDS011;2960;49.142;7.768;2022-11-14T10:56:21;12.90;;;5.43;;
5867;SDS011;2960;49.142;7.768;2022-11-14T10:58:49;13.70;;;5.40;;
5867;SDS011;2960;49.142;7.768;2022-11-14T11:01:33;12.60;;;5.50;;
5867;SDS011;2960;49.142;7.768;2022-11-14T11:04:13;12.23;;;5.60;;
5867;SDS011;2960;49.142;7.768;2022-11-14T11:06:48;12.67;;;5.07;;
5867;SDS011;2960;49.142;7.768;2022-11-14T11:09:18;11.90;;;5.10;;
5867;SDS011;2960;49.142;7.768;2022-11-14T11:12:04;13.57;;;4.90;;
5867;SDS011;2960;49.142;7.768;2022-11-14T11:14:33;12.70;;;4.50;;
5867;SDS011;2960;49.142;7.768;2022-11-14T11:17:07;11.70;;;4.93;;
5867;SDS011;2960;49.142;7.768;2022-11-14T11:19:45;11.00;;;5.00;;
5867;SDS011;2960;49.142;7.768;2022-11-14T11:22:26;13.00;;;5.33;;
5867;SDS011;2960;49.142;7.768;2022-11-14T11:24:56;11.30;;;5.00;;
5867;SDS011;2960;49.142;7.768;2022-11-14T11:27:24;10.90;;;4.17;;
5867;SDS011;2960;49.142;7.768;2022-11-14T11:32:48;11.17;;;4.60;;
5867;SDS011;2960;49.142;7.768;2022-11-14T11:35:15;10.37;;;4.70;;
5867;SDS011;2960;49.142;7.768;2022-11-14T11:37:45;10.90;;;4.70;;
5867;SDS011;2960;49.142;7.768;2022-11-14T11:40:19;11.57;;;4.90;;
5867;SDS011;2960;49.142;7.768;2022-11-14T11:42:52;11.70;;;5.00;;
5867;SDS011;2960;49.142;7.768;2022-11-14T11:45:24;11.60;;;4.40;;
5867;SDS011;2960;49.142;7.768;2022-11-14T11:47:54;10.27;;;4.53;;
5867;SDS011;2960;49.142;7.768;2022-11-14T11:50:24;11.33;;;4.80;;
5867;SDS011;2960;49.142;7.768;2022-11-14T11:52:58;11.60;;;5.00;;
5867;SDS011;2960;49.142;7.768;2022-11-14T11:55:36;11.50;;;4.70;;
5867;SDS011;2960;49.142;7.768;2022-11-14T11:58:10;11.23;;;4.50;;
5867;SDS011;2960;49.142;7.768;2022-11-14T12:00:44;11.13;;;4.50;;
5867;SDS011;2960;49.142;7.768;2022-11-14T12:03:12;10.93;;;4.33;;
5867;SDS011;2960;49.142;7.768;2022-11-14T12:05:43;11.10;;;4.33;;
5867;SDS011;2960;49.142;7.768;2022-11-14T12:08:19;10.50;;;4.47;;
5867;SDS011;2960;49.142;7.768;2022-11-14T12:10:55;10.47;;;4.50;;
5867;SDS011;2960;49.142;7.768;2022-11-14T12:16:24;11.90;;;5.20;;
5867;SDS011;2960;49.142;7.768;2022-11-14T12:19:11;11.97;;;5.03;;
5867;SDS011;2960;49.142;7.768;2022-11-14T12:22:31;11.73;;;5.03;;
5867;SDS011;2960;49.142;7.768;2022-11-14T12:28:40;10.70;;;4.37;;
5867;SDS011;2960;49.142;7.768;2022-11-14T12:31:24;12.80;;;5.40;;
5867;SDS011;2960;49.142;7.768;2022-11-14T12:33:56;11.30;;;4.70;;
5867;SDS011;2960;49.142;7.768;2022-11-14T12:36:26;11.67;;;5.07;;
5867;SDS011;2960;49.142;7.768;2022-11-14T12:38:56;11.40;;;4.97;;
5867;SDS011;2960;49.142;7.768;2022-11-14T12:41:27;11.70;;;4.97;;
5867;SDS011;2960;49.142;7.768;2022-11-14T12:50:01;10.93;;;5.07;;
5867;SDS011;2960;49.142;7.768;2022-11-14T12:52:55;12.03;;;5.17;;
5867;SDS011;2960;49.142;7.768;2022-11-14T13:01:29;11.30;;;4.87;;
5867;SDS011;2960;49.142;7.768;2022-11-14T13:04:17;11.70;;;5.10;;
5867;SDS011;2960;49.142;7.768;2022-11-14T13:07:02;11.00;;;4.70;;
5867;SDS011;2960;49.142;7.768;2022-11-14T13:09:58;11.50;;;5.20;;
5867;SDS011;2960;49.142;7.768;2022-11-14T13:12:38;10.50;;;4.63;;
5867;SDS011;2960;49.142;7.768;2022-11-14T13:15:26;10.73;;;4.40;;
5867;SDS011;2960;49.142;7.768;2022-11-14T13:18:14;10.90;;;4.83;;
5867;SDS011;2960;49.142;7.768;2022-11-14T13:21:05;10.80;;;4.47;;
5867;SDS011;2960;49.142;7.768;2022-11-14T13:24:02;11.03;;;4.40;;
5867;SDS011;2960;49.142;7.768;2022-11-14T13:26:44;11.13;;;4.83;;
5867;SDS011;2960;49.142;7.768;2022-11-14T13:38:30;11.50;;;4.70;;
5867;SDS011;2960;49.142;7.768;2022-11-14T13:41:33;11.83;;;4.83;;
5867;SDS011;2960;49.142;7.768;2022-11-14T13:44:55;12.50;;;4.83;;
5867;SDS011;2960;49.142;7.768;2022-11-14T13:48:12;11.47;;;4.63;;
5867;SDS011;2960;49.142;7.768;2022-11-14T13:51:21;11.53;;;4.83;;
5867;SDS011;2960;49.142;7.768;2022-11-14T13:53:50;11.53;;;5.13;;
5867;SDS011;2960;49.142;7.768;2022-11-14T13:56:24;12.43;;;5.20;;
5867;SDS011;2960;49.142;7.768;2022-11-14T14:05:11;12.27;;;5.53;;
5867;SDS011;2960;49.142;7.768;2022-11-14T14:07:50;13.47;;;5.50;;
5867;SDS011;2960;49.142;7.768;2022-11-14T14:10:29;11.10;;;4.83;;
5867;SDS011;2960;49.142;7.768;2022-11-14T14:13:10;11.40;;;4.70;;
5867;SDS011;2960;49.142;7.768;2022-11-14T14:15:52;11.33;;;4.90;;
5867;SDS011;2960;49.142;7.768;2022-11-14T14:18:31;11.00;;;4.90;;
5867;SDS011;2960;49.142;7.768;2022-11-14T14:21:14;11.00;;;4.57;;
5867;SDS011;2960;49.142;7.768;2022-11-14T14:23:57;11.43;;;4.70;;
5867;SDS011;2960;49.142;7.768;2022-11-14T14:26:36;11.90;;;5.33;;
5867;SDS011;2960;49.142;7.768;2022-11-14T14:29:22;11.30;;;5.20;;
5867;SDS011;2960;49.142;7.768;2022-11-14T14:31:52;10.73;;;4.77;;
5867;SDS011;2960;49.142;7.768;2022-11-14T14:34:19;11.50;;;4.80;;
5867;SDS011;2960;49.142;7.768;2022-11-14T14:36:51;12.10;;;5.10;;
5867;SDS011;2960;49.142;7.768;2022-11-14T14:39:20;10.83;;;4.80;;
5867;SDS011;2960;49.142;7.768;2022-11-14T14:41:50;11.00;;;4.80;;
5867;SDS011;2960;49.142;7.768;2022-11-14T14:44:24;11.20;;;4.93;;
5867;SDS011;2960;49.142;7.768;2022-11-14T14:46:55;11.50;;;4.70;;
5867;SDS011;2960;49.142;7.768;2022-11-14T14:49:23;11.73;;;4.70;;
5867;SDS011;2960;49.142;7.768;2022-11-14T14:51:55;10.97;;;5.00;;
5867;SDS011;2960;49.142;7.768;2022-11-14T14:54:23;11.77;;;5.10;;
5867;SDS011;2960;49.142;7.768;2022-11-14T14:56:53;11.20;;;4.80;;
5867;SDS011;2960;49.142;7.768;2022-11-14T14:59:24;11.40;;;4.70;;
5867;SDS011;2960;49.142;7.768;2022-11-14T15:01:55;11.60;;;4.77;;
5867;SDS011;2960;49.142;7.768;2022-11-14T15:04:24;12.53;;;4.83;;
5867;SDS011;2960;49.142;7.768;2022-11-14T15:06:53;10.67;;;4.57;;
5867;SDS011;2960;49.142;7.768;2022-11-14T15:09:23;12.00;;;5.07;;
5867;SDS011;2960;49.142;7.768;2022-11-14T15:11:54;11.10;;;4.90;;
5867;SDS011;2960;49.142;7.768;2022-11-14T15:14:24;11.30;;;4.90;;
5867;SDS011;2960;49.142;7.768;2022-11-14T15:16:54;11.93;;;5.17;;
5867;SDS011;2960;49.142;7.768;2022-11-14T15:19:23;10.10;;;4.30;;
5867;SDS011;2960;49.142;7.768;2022-11-14T15:22:20;10.83;;;4.57;;
5867;SDS011;2960;49.142;7.768;2022-11-14T15:27:44;11.83;;;5.10;;
5867;SDS011;2960;49.142;7.768;2022-11-14T15:30:22;11.97;;;5.40;;
5867;SDS011;2960;49.142;7.768;2022-11-14T15:32:51;12.10;;;5.00;;
5867;SDS011;2960;49.142;7.768;2022-11-14T15:35:24;12.20;;;5.23;;
5867;SDS011;2960;49.142;7.768;2022-11-14T15:43:45;11.97;;;5.10;;
5867;SDS011;2960;49.142;7.768;2022-11-14T15:46:36;12.77;;;5.07;;
5867;SDS011;2960;49.142;7.768;2022-11-14T15:49:09;11.60;;;4.70;;
5867;SDS011;2960;49.142;7.768;2022-11-14T15:51:47;12.10;;;5.17;;
5867;SDS011;2960;49.142;7.768;2022-11-14T15:54:26;13.73;;;5.20;;
5867;SDS011;2960;49.142;7.768;2022-11-14T15:56:56;10.83;;;4.80;;
5867;SDS011;2960;49.142;7.768;2022-11-14T15:59:26;10.63;;;4.63;;
5867;SDS011;2960;49.142;7.768;2022-11-14T16:01:56;11.13;;;5.03;;
5867;SDS011;2960;49.142;7.768;2022-11-14T16:04:28;13.07;;;5.20;;
5867;SDS011;2960;49.142;7.768;2022-11-14T16:06:58;11.00;;;4.60;;
5867;SDS011;2960;49.142;7.768;2022-11-14T16:09:27;11.63;;;4.87;;
5867;SDS011;2960;49.142;7.768;2022-11-14T16:11:54;11.37;;;4.90;;
5867;SDS011;2960;49.142;7.768;2022-11-14T16:14:21;12.20;;;5.47;;